Aeroporto :
LOGIN :

Iscrizione | Disclaimer

   EN    FR    IT 

 










Sommario :    VFR   VFR Marginale   IFR   IFR Intensivo   IFR Molto Intensivo
Visibilità : 
Base nubi : 
>= 8 km
>= 3000ft
5 / 8 km
1000 / 3000 ft
1500m / 5 km
500 / 1000 ft
800 / 1500m
200 / 500 ft
< 800m
< 200 ft
Simboli :   Temporali  Nebbia  Neve Forte  Precipitazioni Forti  Vento > 20 kt
SIGMETs :   Varie  Temporali  Ghiacco  Turbolenza  Onda orograficha  Ceneri Vulcaniche






- Altitudine del aeroporto : 24 ft
- Codice IATA : SGD


EKSB - Sonderborg

ULTIMO METAR :
  • 300650Z 19002KT 9999 SCT010 BKN022 02/00 Q1023

METARs OBSOLETI :
  • 300620Z 17001KT 9999 SCT010 BKN022 02/00 Q1023
  • 300550Z 16001KT 9999 SCT010 BKN024 02/00 Q1023
  • 300520Z 21001KT 9999 SCT010 BKN013 01/M00 Q1024
  • 300450Z AUTO 22003KT 9999NDV FEW014/// OVC022/// 01/M00 Q1024
  • 300420Z AUTO 24003KT 9999NDV OVC012/// 01/M01 Q1025

TAF TAF EKSB
Valido dal 30 a 06 ore il 30 a 15 ore UTC


300555Z 3006/3015 21008KT 9999 BKN020
TEMPO 3006/3007 BKN010



MetMap, La meteo Aeronautica in un colpo d'occhio ! - Copyright ORBIFLY Dicembre 2007 - Disclaimer

ORBIFLY MET'MAP TEAM :

Programmazione e sviluppo : Alexandra Zaïnal
Concezione : Baudouin d'Aumeries
Aiuto per la programmazione : Marc-Olivier Méhu
Supporto tecnico e logistico : Manuel Goepfert
Aiuto per la traduzione : Arnaldo La Scala

Contatto : metmap@orbifly.com




FONTI E CREDITI :

   NOAA